Time;durP1;ratioP1;P1;durP2;ratioP2;P2;SDS_P1;SDS_P2;PMS_P1;PMS_P2;Temp;Humidity;BMP_temperature;BMP_pressure;BME280_temperature;BME280_humidity;BME280_pressure;Samples;Min_cycle;Max_cycle;Signal;HPM_P1;HPM_P2
2023/09/13 00:01:13;;;;;;;11.33;8.83;;;18.60;99.90;;;;;;6246955;23;20147;-47
2023/09/13 00:03:39;;;;;;;10.00;8.13;;;18.60;99.90;;;;;;6244953;23;20179;-47
2023/09/13 00:06:10;;;;;;;11.23;7.97;;;18.60;99.90;;;;;;6245540;23;20258;-42
2023/09/13 00:08:40;;;;;;;9.93;8.13;;;18.60;99.90;;;;;;6244646;23;20229;-40
2023/09/13 00:11:06;;;;;;;9.33;7.50;;;18.50;99.90;;;;;;6246594;23;20140;-41
2023/09/13 00:13:33;;;;;;;11.07;8.60;;;18.50;99.90;;;;;;6246302;23;20234;-40
2023/09/13 00:16:00;;;;;;;10.50;8.03;;;18.50;99.90;;;;;;6245051;23;20172;-39
2023/09/13 00:18:26;;;;;;;10.77;8.70;;;18.50;99.90;;;;;;6244636;23;20606;-43
2023/09/13 00:25:00;;;;;;;13.97;9.30;;;18.50;99.90;;;;;;6246646;23;20226;-46
2023/09/13 00:27:29;;;;;;;13.10;9.00;;;18.50;99.90;;;;;;6244797;23;20182;-45
2023/09/13 00:30:02;;;;;;;12.07;9.23;;;18.50;99.90;;;;;;6246410;23;20154;-46
2023/09/13 00:32:35;;;;;;;11.13;9.10;;;18.50;99.90;;;;;;6246886;22;20167;-46
2023/09/13 00:35:05;;;;;;;13.17;9.03;;;18.40;99.90;;;;;;6244343;23;20270;-48
2023/09/13 00:37:33;;;;;;;16.07;9.73;;;18.40;99.90;;;;;;6245189;23;20669;-44
2023/09/13 00:44:01;;;;;;;14.03;9.47;;;18.40;99.90;;;;;;6246402;23;20520;-46
2023/09/13 00:47:18;;;;;;;11.07;8.97;;;18.30;99.90;;;;;;6242164;23;20180;-47
2023/09/13 00:49:47;;;;;;;15.57;10.43;;;18.30;99.90;;;;;;6246108;22;20207;-44
2023/09/13 00:55:41;;;;;;;20.27;11.23;;;18.30;99.90;;;;;;6160224;22;20256;-48
2023/09/13 00:58:34;;;;;;;13.10;10.53;;;18.30;99.90;;;;;;6244780;23;20160;-46
2023/09/13 01:01:42;;;;;;;19.47;11.97;;;18.30;99.90;;;;;;6244764;23;20230;-46
2023/09/13 01:04:09;;;;;;;16.33;11.90;;;18.30;99.90;;;;;;6245596;22;20183;-46
2023/09/13 01:06:37;;;;;;;16.93;12.37;;;18.30;99.90;;;;;;6244343;23;20226;-46
2023/09/13 01:09:04;;;;;;;18.70;13.13;;;18.30;99.90;;;;;;6244463;23;20183;-46
2023/09/13 01:11:33;;;;;;;19.40;12.57;;;18.40;99.90;;;;;;6219477;23;20167;-46
2023/09/13 01:13:59;;;;;;;19.03;12.73;;;18.30;99.90;;;;;;6246249;22;20210;-47
2023/09/13 01:17:06;;;;;;;17.10;11.63;;;18.30;99.90;;;;;;6219158;23;20180;-47
2023/09/13 01:19:59;;;;;;;17.10;12.37;;;18.30;99.90;;;;;;6241751;23;20548;-46
2023/09/13 01:22:46;;;;;;;22.13;13.30;;;18.30;99.90;;;;;;6239237;23;20637;-47
2023/09/13 01:25:40;;;;;;;18.83;12.30;;;18.30;99.90;;;;;;6244202;23;20175;-46
2023/09/13 01:28:19;;;;;;;16.57;12.30;;;18.30;99.90;;;;;;6245840;23;20571;-48
2023/09/13 01:30:49;;;;;;;19.23;12.20;;;18.30;99.90;;;;;;6244318;23;20155;-46
2023/09/13 01:33:14;;;;;;;20.83;13.40;;;18.30;99.90;;;;;;6244498;23;20235;-46
2023/09/13 01:35:40;;;;;;;19.40;13.90;;;18.30;99.90;;;;;;6245854;22;20226;-47
2023/09/13 01:38:07;;;;;;;22.13;14.07;;;18.30;99.90;;;;;;6244289;23;20163;-47
2023/09/13 01:40:40;;;;;;;18.90;14.40;;;18.30;99.90;;;;;;6244200;23;20493;-47
2023/09/13 01:43:08;;;;;;;20.37;15.43;;;18.40;99.90;;;;;;6245317;23;20197;-47
2023/09/13 01:45:35;;;;;;;22.60;16.93;;;18.40;99.90;;;;;;6244693;23;20184;-47
2023/09/13 01:48:04;;;;;;;24.60;15.03;;;18.40;99.90;;;;;;6246171;23;20234;-46
2023/09/13 01:50:32;;;;;;;27.60;17.50;;;18.40;99.90;;;;;;6245531;23;20196;-48
2023/09/13 01:53:04;;;;;;;31.13;18.13;;;18.40;99.90;;;;;;6246147;23;20242;-47
2023/09/13 01:55:35;;;;;;;34.80;21.40;;;18.40;99.90;;;;;;6246338;23;20175;-48
2023/09/13 01:58:02;;;;;;;36.17;22.87;;;18.40;99.90;;;;;;6246112;23;20640;-47
2023/09/13 02:00:27;;;;;;;34.03;21.27;;;18.50;99.90;;;;;;6246058;23;20159;-47
2023/09/13 02:02:56;;;;;;;39.60;24.10;;;18.50;99.90;;;;;;6247428;23;20255;-46
2023/09/13 02:05:21;;;;;;;38.10;22.73;;;18.50;99.90;;;;;;6247511;22;20172;-46
2023/09/13 02:07:47;;;;;;;38.83;23.50;;;18.50;99.90;;;;;;6247830;23;20194;-47
2023/09/13 02:10:13;;;;;;;37.17;24.10;;;18.50;99.90;;;;;;6245975;23;20551;-46
2023/09/13 02:12:39;;;;;;;37.07;24.17;;;18.50;99.90;;;;;;6248194;23;20597;-47
2023/09/13 02:15:05;;;;;;;38.77;25.33;;;18.60;99.90;;;;;;6247777;23;20168;-45
2023/09/13 02:17:32;;;;;;;40.63;24.13;;;18.60;99.90;;;;;;6246301;23;20274;-43
2023/09/13 02:19:59;;;;;;;38.80;24.87;;;18.60;99.90;;;;;;6247363;22;20178;-43
2023/09/13 02:22:30;;;;;;;41.37;25.80;;;18.60;99.90;;;;;;6245622;23;20184;-42
2023/09/13 02:24:56;;;;;;;38.70;25.23;;;18.60;99.90;;;;;;6245788;23;20182;-42
2023/09/13 02:27:23;;;;;;;39.63;26.07;;;18.60;99.90;;;;;;6247119;22;20238;-40
2023/09/13 02:29:50;;;;;;;40.37;26.47;;;18.60;99.90;;;;;;6247445;22;20152;-41
2023/09/13 02:32:24;;;;;;;41.77;26.57;;;18.60;99.90;;;;;;6245514;23;20156;-41
2023/09/13 02:34:50;;;;;;;44.87;27.37;;;18.60;99.90;;;;;;6247224;23;20171;-43
2023/09/13 02:37:19;;;;;;;43.03;26.17;;;18.60;99.90;;;;;;6247682;23;20271;-41
2023/09/13 02:39:47;;;;;;;43.60;27.70;;;18.70;99.90;;;;;;6245720;23;20606;-43
2023/09/13 02:42:13;;;;;;;44.73;28.27;;;18.60;99.90;;;;;;6245537;23;20160;-42
2023/09/13 02:44:41;;;;;;;49.50;29.87;;;18.70;99.90;;;;;;6247412;23;20182;-42
2023/09/13 02:47:07;;;;;;;48.97;27.93;;;18.70;99.90;;;;;;6245874;23;20175;-45
2023/09/13 02:49:33;;;;;;;49.10;30.60;;;18.70;99.90;;;;;;6245546;23;20156;-46
2023/09/13 02:51:58;;;;;;;46.67;28.67;;;18.60;99.90;;;;;;6245499;23;20159;-46
2023/09/13 02:54:25;;;;;;;49.60;29.83;;;18.60;99.90;;;;;;6245437;23;20163;-47
2023/09/13 02:56:56;;;;;;;47.93;30.53;;;18.60;99.90;;;;;;6247408;22;20188;-46
2023/09/13 02:59:31;;;;;;;46.87;30.43;;;18.70;99.90;;;;;;6245455;23;20151;-47
2023/09/13 03:02:02;;;;;;;50.53;30.67;;;18.70;99.90;;;;;;6245651;23;20147;-45
2023/09/13 03:04:29;;;;;;;53.93;31.93;;;18.70;99.90;;;;;;6245765;23;20171;-47
2023/09/13 03:06:56;;;;;;;53.83;31.00;;;18.60;99.90;;;;;;6220889;23;20160;-48
2023/09/13 03:09:23;;;;;;;49.47;32.53;;;18.60;99.90;;;;;;6245640;23;20239;-46
2023/09/13 03:11:50;;;;;;;50.20;30.87;;;18.70;99.90;;;;;;6245385;23;20163;-46
2023/09/13 03:14:17;;;;;;;50.67;31.07;;;18.60;99.90;;;;;;6245496;23;20190;-47
2023/09/13 03:16:48;;;;;;;50.67;31.93;;;18.60;99.90;;;;;;6245040;23;20183;-46
2023/09/13 03:19:14;;;;;;;51.10;32.03;;;18.60;99.90;;;;;;6246473;22;20194;-45
2023/09/13 03:21:44;;;;;;;53.00;32.13;;;18.60;99.90;;;;;;6245327;23;20168;-46
2023/09/13 03:24:13;;;;;;;47.00;31.60;;;18.60;99.90;;;;;;6245018;23;20190;-46
2023/09/13 03:26:58;;;;;;;49.80;32.87;;;18.60;99.90;;;;;;6246032;23;20563;-47
2023/09/13 03:29:23;;;;;;;51.20;33.33;;;18.60;99.90;;;;;;6246697;22;20214;-47
2023/09/13 03:31:49;;;;;;;56.27;34.40;;;18.50;99.90;;;;;;6245210;23;20160;-47
2023/09/13 03:34:22;;;;;;;51.03;34.33;;;18.50;99.90;;;;;;6245103;23;20156;-47
2023/09/13 03:36:48;;;;;;;52.73;34.50;;;18.60;99.90;;;;;;6245006;23;20175;-45
2023/09/13 03:39:14;;;;;;;48.60;31.90;;;18.60;99.90;;;;;;6245099;23;20243;-45
2023/09/13 03:41:41;;;;;;;50.50;33.07;;;18.50;99.90;;;;;;6247531;23;20585;-44
2023/09/13 03:44:11;;;;;;;46.83;31.63;;;18.60;99.90;;;;;;6246084;22;20518;-47
2023/09/13 03:46:37;;;;;;;49.90;30.07;;;18.50;99.90;;;;;;6245394;23;20176;-46
2023/09/13 03:49:05;;;;;;;49.30;30.97;;;18.50;99.90;;;;;;6245447;23;20609;-48
2023/09/13 03:51:34;;;;;;;46.40;31.37;;;18.50;99.90;;;;;;6245570;23;20166;-45
2023/09/13 03:54:01;;;;;;;48.07;30.87;;;18.50;99.90;;;;;;6245512;23;20166;-46
2023/09/13 03:56:26;;;;;;;50.37;31.20;;;18.40;99.90;;;;;;6246768;22;20254;-46
2023/09/13 03:58:53;;;;;;;45.77;30.13;;;18.40;99.90;;;;;;6244883;23;20191;-46
2023/09/13 04:01:19;;;;;;;37.37;25.97;;;18.40;99.90;;;;;;6244760;23;20190;-49
2023/09/13 04:03:46;;;;;;;39.73;27.30;;;18.40;99.90;;;;;;6244618;23;20187;-45
2023/09/13 04:06:13;;;;;;;39.43;24.73;;;18.40;99.90;;;;;;6246268;22;20171;-46
2023/09/13 04:08:40;;;;;;;42.20;26.10;;;18.30;99.90;;;;;;6245859;23;20152;-46
2023/09/13 04:11:06;;;;;;;34.83;25.03;;;18.30;99.90;;;;;;6246277;23;20151;-44
2023/09/13 04:13:35;;;;;;;38.10;25.47;;;18.30;99.90;;;;;;6246487;22;20158;-44
2023/09/13 04:16:07;;;;;;;37.50;26.13;;;18.30;99.90;;;;;;6243046;23;20191;-46
2023/09/13 04:21:55;;;;;;;41.87;27.37;;;18.30;99.90;;;;;;6246444;23;20143;-46
2023/09/13 04:24:21;;;;;;;43.40;28.03;;;18.20;99.90;;;;;;6246280;23;20254;-48
2023/09/13 04:26:51;;;;;;;45.77;29.63;;;18.20;99.90;;;;;;6245180;23;20644;-45
2023/09/13 04:29:21;;;;;;;44.40;29.40;;;18.20;99.90;;;;;;6246353;22;20179;-48
2023/09/13 04:31:47;;;;;;;51.97;29.97;;;18.20;99.90;;;;;;6244297;23;20160;-49
2023/09/13 04:34:25;;;;;;;47.13;30.27;;;18.20;99.90;;;;;;6244671;23;20230;-48
2023/09/13 04:36:51;;;;;;;47.80;31.33;;;18.20;99.90;;;;;;6244549;23;20238;-47
2023/09/13 04:39:16;;;;;;;44.33;29.53;;;18.20;99.90;;;;;;6246209;23;20175;-47
2023/09/13 04:41:43;;;;;;;47.03;28.63;;;18.20;99.90;;;;;;6244684;23;20209;-48
2023/09/13 04:44:08;;;;;;;41.23;26.63;;;18.10;99.90;;;;;;6244412;23;20264;-47
2023/09/13 04:46:35;;;;;;;39.83;25.67;;;18.20;99.90;;;;;;6244445;23;20264;-47
2023/09/13 04:49:03;;;;;;;40.40;26.80;;;18.20;99.90;;;;;;6244594;23;20242;-47
2023/09/13 04:51:29;;;;;;;41.47;26.07;;;18.20;99.90;;;;;;6246077;22;20597;-47
2023/09/13 04:54:00;;;;;;;40.57;26.03;;;18.20;99.90;;;;;;6246519;23;20210;-47
2023/09/13 04:56:26;;;;;;;38.57;27.13;;;18.10;99.90;;;;;;6246201;23;20176;-47
2023/09/13 04:58:55;;;;;;;38.10;26.17;;;18.10;99.90;;;;;;6246352;23;20170;-48
2023/09/13 05:01:21;;;;;;;44.60;26.33;;;18.10;99.90;;;;;;6246484;22;20195;-47
2023/09/13 05:03:49;;;;;;;37.60;26.33;;;18.10;99.90;;;;;;6245982;23;20178;-46
2023/09/13 05:06:15;;;;;;;37.50;26.83;;;18.10;99.90;;;;;;6245847;22;20176;-45
2023/09/13 05:08:48;;;;;;;35.60;24.77;;;18.00;99.90;;;;;;6243540;23;20164;-47
2023/09/13 05:11:14;;;;;;;38.33;23.90;;;18.00;99.90;;;;;;6244982;23;20140;-46
2023/09/13 05:13:47;;;;;;;35.33;25.27;;;18.00;99.90;;;;;;6246806;23;20162;-46
2023/09/13 05:16:23;;;;;;;33.83;23.07;;;18.00;99.90;;;;;;6245740;22;20187;-46
2023/09/13 05:18:50;;;;;;;34.10;22.97;;;18.00;99.90;;;;;;6193566;23;20166;-46
2023/09/13 05:21:21;;;;;;;31.13;21.97;;;18.00;99.90;;;;;;6245684;23;20163;-45
2023/09/13 05:23:50;;;;;;;31.37;22.33;;;18.00;99.90;;;;;;6248343;22;20190;-47
2023/09/13 05:26:21;;;;;;;33.37;21.07;;;17.90;99.90;;;;;;6248158;23;20310;-48
2023/09/13 05:28:49;;;;;;;35.83;23.33;;;17.90;99.90;;;;;;6248299;22;20171;-47
2023/09/13 05:31:15;;;;;;;29.80;21.00;;;17.90;99.90;;;;;;6247619;23;20178;-47
2023/09/13 05:33:43;;;;;;;28.07;21.00;;;17.90;99.90;;;;;;6247934;22;20159;-48
2023/09/13 05:36:19;;;;;;;29.47;20.53;;;17.90;99.90;;;;;;6246723;23;20195;-45
2023/09/13 05:38:44;;;;;;;27.13;20.13;;;17.90;99.90;;;;;;6247845;23;20144;-48
2023/09/13 05:41:19;;;;;;;28.63;19.70;;;17.80;99.90;;;;;;6248140;23;20495;-48
2023/09/13 05:43:45;;;;;;;26.70;19.80;;;17.90;99.90;;;;;;6247699;23;20167;-45
2023/09/13 05:46:11;;;;;;;26.37;18.90;;;17.90;99.90;;;;;;6247725;23;20243;-47
2023/09/13 05:48:38;;;;;;;31.17;20.17;;;17.90;99.90;;;;;;6247719;22;20255;-48
2023/09/13 05:51:07;;;;;;;25.20;18.83;;;17.90;99.90;;;;;;6247756;22;20590;-45
2023/09/13 05:53:34;;;;;;;27.67;20.13;;;17.90;99.90;;;;;;6247986;23;20167;-43
2023/09/13 11:02:21;;;;;;;14.77;9.67;;;21.50;92.50;;;;;;6249784;23;20171;-50
2023/09/13 11:04:48;;;;;;;14.10;9.80;;;21.40;93.20;;;;;;6249606;22;20179;-45
2023/09/13 11:07:15;;;;;;;16.13;10.27;;;21.30;95.60;;;;;;6247350;23;20251;-45
2023/09/13 11:09:43;;;;;;;14.40;10.77;;;21.20;97.80;;;;;;6248321;22;20156;-45
2023/09/13 11:12:12;;;;;;;14.43;10.07;;;21.10;99.90;;;;;;6247980;23;20214;-46
2023/09/13 11:14:47;;;;;;;10.03;6.07;;;21.00;99.90;;;;;;6249314;22;20250;-48
2023/09/13 11:17:44;;;;;;;2.53;1.90;;;20.90;99.90;;;;;;6247653;23;20230;-48
2023/09/13 11:20:32;;;;;;;1.80;1.53;;;20.40;94.40;;;;;;6247842;23;20314;-45
2023/09/13 11:29:53;;;;;;;1.10;1.00;;;19.00;99.90;;;;;;6248748;23;20179;-47
2023/09/13 11:33:03;;;;;;;1.33;1.20;;;18.50;99.90;;;;;;6248996;22;20132;-46
2023/09/13 11:35:34;;;;;;;2.97;1.20;;;18.20;99.90;;;;;;6249018;22;20178;-45
2023/09/13 11:38:00;;;;;;;1.53;1.20;;;18.00;99.90;;;;;;6248460;22;20208;-48
2023/09/13 11:40:25;;;;;;;1.10;1.00;;;17.80;99.90;;;;;;6246863;23;20246;-48
2023/09/13 11:42:52;;;;;;;1.20;1.10;;;17.70;99.90;;;;;;6248849;23;20177;-47
2023/09/13 11:45:18;;;;;;;1.47;1.13;;;17.60;99.90;;;;;;6248250;22;20544;-48
2023/09/13 11:47:49;;;;;;;3.67;1.17;;;17.40;99.90;;;;;;6246804;23;20167;-48
2023/09/13 11:50:16;;;;;;;2.07;1.23;;;17.30;99.90;;;;;;6248612;22;20140;-50
2023/09/13 11:53:16;;;;;;;2.10;1.07;;;17.20;99.90;;;;;;6246536;23;20438;-45
2023/09/13 11:55:55;;;;;;;1.80;1.40;;;17.20;99.90;;;;;;6245646;23;20176;-45
2023/09/13 11:58:46;;;;;;;1.50;1.27;;;17.10;99.90;;;;;;6246477;23;20162;-48
2023/09/13 12:01:12;;;;;;;1.97;1.50;;;17.10;99.90;;;;;;6246174;23;20552;-48
2023/09/13 12:03:43;;;;;;;2.90;1.43;;;17.10;99.90;;;;;;6245835;23;20179;-45
2023/09/13 12:06:09;;;;;;;2.23;1.40;;;17.10;99.90;;;;;;6245560;23;20641;-48
2023/09/13 12:08:38;;;;;;;2.73;1.50;;;17.10;99.90;;;;;;6245295;23;20155;-48
2023/09/13 12:11:08;;;;;;;2.27;1.60;;;17.10;99.90;;;;;;6221162;23;20187;-48
2023/09/13 12:13:41;;;;;;;4.40;1.53;;;17.10;99.90;;;;;;6246443;23;20163;-48
2023/09/13 12:16:09;;;;;;;3.10;1.80;;;17.10;99.90;;;;;;6247941;22;20179;-48
2023/09/13 12:18:36;;;;;;;3.27;1.67;;;17.20;99.90;;;;;;6246952;23;20155;-48
2023/09/13 12:21:06;;;;;;;3.67;1.90;;;17.20;99.90;;;;;;6247415;22;20211;-45
2023/09/13 12:23:47;;;;;;;2.80;1.53;;;17.20;99.90;;;;;;6245040;23;20179;-45
2023/09/13 12:26:19;;;;;;;3.07;1.80;;;17.30;99.90;;;;;;6220272;23;20255;-43
2023/09/13 12:28:46;;;;;;;2.83;1.97;;;17.30;99.90;;;;;;6248614;22;20147;-49
2023/09/13 12:31:14;;;;;;;4.27;2.10;;;17.40;99.90;;;;;;6246949;23;20211;-44
2023/09/13 12:33:42;;;;;;;2.07;1.47;;;17.50;99.90;;;;;;6249305;22;20176;-45
2023/09/13 12:36:09;;;;;;;4.17;1.80;;;17.50;99.90;;;;;;6248328;22;20203;-42
2023/09/13 12:38:41;;;;;;;2.73;1.60;;;17.50;99.90;;;;;;6247308;22;20156;-47
2023/09/13 12:41:07;;;;;;;2.60;1.80;;;17.60;99.90;;;;;;6247317;23;20159;-45
2023/09/13 12:43:36;;;;;;;2.10;1.73;;;17.70;99.90;;;;;;6247811;22;20171;-48
2023/09/13 12:46:09;;;;;;;1.70;1.30;;;17.70;99.90;;;;;;6248581;22;20176;-45
2023/09/13 12:48:45;;;;;;;1.30;1.20;;;17.80;99.90;;;;;;6247065;23;20155;-46
2023/09/13 12:51:21;;;;;;;2.20;1.27;;;17.80;99.90;;;;;;6248109;22;20142;-44
2023/09/13 12:53:50;;;;;;;3.03;1.23;;;17.80;99.90;;;;;;6247740;22;20150;-48
2023/09/13 12:56:15;;;;;;;2.00;1.60;;;17.80;99.90;;;;;;6248133;22;20254;-48
2023/09/13 12:58:52;;;;;;;2.37;1.63;;;17.90;99.90;;;;;;6248287;23;20158;-44
2023/09/13 13:01:20;;;;;;;2.83;1.50;;;18.00;99.90;;;;;;6247792;22;20162;-44
2023/09/13 13:03:55;;;;;;;2.50;1.40;;;18.00;99.90;;;;;;6220181;23;20250;-46
2023/09/13 13:06:21;;;;;;;3.03;1.50;;;18.20;99.90;;;;;;6247749;22;20174;-48
2023/09/13 13:08:50;;;;;;;4.13;1.33;;;18.30;99.90;;;;;;6247831;23;20151;-45
2023/09/13 13:11:17;;;;;;;3.30;1.10;;;18.30;99.90;;;;;;6245467;23;20166;-44
2023/09/13 13:13:43;;;;;;;2.17;1.40;;;18.30;99.90;;;;;;6245176;23;20159;-49
2023/09/13 13:16:19;;;;;;;2.60;1.37;;;18.30;99.90;;;;;;6245162;23;20256;-44
2023/09/13 13:18:53;;;;;;;2.13;1.10;;;18.30;99.90;;;;;;6248123;22;20151;-49
2023/09/13 13:21:24;;;;;;;1.73;1.20;;;18.30;99.90;;;;;;6248714;22;20585;-45
2023/09/13 13:23:51;;;;;;;1.23;1.00;;;18.40;99.90;;;;;;6248498;22;20163;-48
2023/09/13 13:26:22;;;;;;;2.47;1.33;;;18.40;99.90;;;;;;6246463;23;20648;-49
2023/09/13 13:28:48;;;;;;;1.80;1.00;;;18.40;99.90;;;;;;6248020;22;20132;-48
2023/09/13 13:31:14;;;;;;;1.30;1.07;;;18.50;99.90;;;;;;6247534;22;20148;-47
2023/09/13 13:33:41;;;;;;;1.93;1.20;;;18.50;99.90;;;;;;6247457;22;20155;-48
2023/09/13 13:36:07;;;;;;;2.17;1.40;;;18.60;99.90;;;;;;6247362;22;20200;-48
2023/09/13 13:38:34;;;;;;;1.83;1.13;;;18.60;99.90;;;;;;6246371;23;20166;-49
2023/09/13 13:41:09;;;;;;;2.63;1.30;;;18.60;99.90;;;;;;6245983;23;20160;-50
2023/09/13 13:43:42;;;;;;;1.27;1.17;;;18.60;99.90;;;;;;6247874;23;20566;-43
2023/09/13 13:46:12;;;;;;;3.37;1.50;;;18.70;99.90;;;;;;6223101;23;20175;-49
2023/09/13 13:48:38;;;;;;;2.30;1.37;;;18.70;99.90;;;;;;6248452;23;20231;-44
2023/09/13 13:51:05;;;;;;;1.90;1.37;;;18.60;99.90;;;;;;6248066;23;20156;-44
2023/09/13 13:53:32;;;;;;;2.03;1.30;;;18.60;99.90;;;;;;6249214;22;20156;-50
2023/09/13 13:56:02;;;;;;;2.43;1.03;;;18.60;99.90;;;;;;6249084;23;20251;-44
2023/09/13 13:58:28;;;;;;;1.10;0.90;;;18.50;99.90;;;;;;6247731;23;20221;-43
2023/09/13 14:00:55;;;;;;;1.33;1.00;;;18.60;99.90;;;;;;6249227;22;20160;-44
2023/09/13 14:03:25;;;;;;;1.73;0.80;;;18.70;99.90;;;;;;6248925;22;20187;-49
2023/09/13 14:05:52;;;;;;;1.60;0.70;;;18.80;97.60;;;;;;6247395;23;20523;-42
2023/09/13 14:08:24;;;;;;;1.30;0.60;;;18.80;92.20;;;;;;6247705;23;20251;-45
2023/09/13 14:10:54;;;;;;;0.70;0.70;;;18.90;98.00;;;;;;6249548;22;20239;-48
2023/09/13 14:13:20;;;;;;;7.93;1.17;;;18.90;71.40;;;;;;6247665;23;20167;-50
2023/09/13 14:15:47;;;;;;;1.87;0.70;;;19.00;71.30;;;;;;6247232;23;20209;-48
2023/09/13 14:18:13;;;;;;;0.87;0.60;;;19.00;76.70;;;;;;6248900;22;20160;-45
2023/09/13 14:20:42;;;;;;;0.97;0.50;;;19.10;67.60;;;;;;6248408;23;20164;-48
2023/09/13 14:23:10;;;;;;;0.97;0.60;;;19.10;62.20;;;;;;6245805;23;20183;-49
2023/09/13 14:25:36;;;;;;;0.90;0.70;;;19.20;74.40;;;;;;6247714;22;20174;-49
2023/09/13 14:28:05;;;;;;;1.23;0.60;;;19.20;70.70;;;;;;6248496;22;20155;-49
2023/09/13 14:30:32;;;;;;;0.93;0.63;;;19.30;67.90;;;;;;6246006;23;20167;-48
2023/09/13 14:32:58;;;;;;;1.67;0.77;;;19.30;45.60;;;;;;6247681;22;20602;-49
2023/09/13 14:35:24;;;;;;;1.73;0.70;;;19.20;37.50;;;;;;6247593;22;20178;-49
2023/09/13 14:37:52;;;;;;;1.77;0.70;;;19.10;54.30;;;;;;6247910;22;20160;-49
2023/09/13 14:40:19;;;;;;;2.40;0.80;;;19.10;42.90;;;;;;6247554;22;20183;-48
2023/09/13 14:42:44;;;;;;;0.50;0.50;;;18.90;39.40;;;;;;6247495;22;20166;-49
2023/09/13 14:45:12;;;;;;;0.50;0.50;;;18.90;56.00;;;;;;6247195;22;20250;-48
2023/09/13 14:47:38;;;;;;;3.00;0.73;;;18.90;57.10;;;;;;6245702;23;20156;-49
2023/09/13 14:50:04;;;;;;;2.67;0.80;;;18.90;61.00;;;;;;6245796;23;20159;-48
2023/09/13 14:52:36;;;;;;;3.33;0.70;;;18.80;66.10;;;;;;6247196;22;20270;-49
2023/09/13 14:55:06;;;;;;;1.20;0.80;;;18.80;55.40;;;;;;6247834;22;20172;-48
2023/09/13 14:57:33;;;;;;;0.73;0.63;;;18.80;58.00;;;;;;6245687;23;20164;-48
2023/09/13 14:59:59;;;;;;;3.13;0.70;;;18.70;59.00;;;;;;6247422;22;20202;-42
2023/09/13 15:02:25;;;;;;;0.80;0.70;;;18.70;54.30;;;;;;6247801;22;20175;-44
2023/09/13 15:05:01;;;;;;;1.17;0.63;;;18.70;55.60;;;;;;6247766;22;20200;-42
2023/09/13 15:07:33;;;;;;;1.50;0.73;;;18.70;57.80;;;;;;6247520;22;20144;-44
2023/09/13 15:10:12;;;;;;;3.57;1.23;;;18.70;61.30;;;;;;6248182;22;20136;-44
2023/09/13 15:12:48;;;;;;;2.40;1.00;;;18.60;70.00;;;;;;6246101;23;20152;-44
2023/09/13 15:15:18;;;;;;;1.20;1.00;;;18.70;67.00;;;;;;6247888;22;20230;-45
2023/09/13 15:17:48;;;;;;;3.43;1.10;;;18.60;74.30;;;;;;6247591;22;20286;-42
2023/09/13 15:20:14;;;;;;;1.63;1.03;;;18.70;86.40;;;;;;6248024;22;20139;-44
2023/09/13 15:22:40;;;;;;;3.20;0.90;;;18.60;81.80;;;;;;6245908;23;20168;-44
2023/09/13 15:25:23;;;;;;;1.70;1.20;;;18.70;90.00;;;;;;6247634;22;20168;-43
2023/09/13 15:27:49;;;;;;;1.73;1.17;;;18.70;82.80;;;;;;6247414;22;20574;-44
2023/09/13 15:30:17;;;;;;;2.87;1.40;;;18.60;82.60;;;;;;6247391;23;20166;-43
2023/09/13 15:32:47;;;;;;;2.87;1.07;;;18.60;60.00;;;;;;6246291;23;20155;-43
2023/09/13 15:35:13;;;;;;;3.33;1.50;;;18.60;62.10;;;;;;6247305;22;20496;-43
2023/09/13 15:37:40;;;;;;;2.83;1.50;;;18.60;69.00;;;;;;6245410;23;20153;-48
2023/09/13 15:40:12;;;;;;;2.47;1.30;;;18.60;72.70;;;;;;6247643;22;20174;-49
2023/09/13 15:42:40;;;;;;;2.27;1.60;;;18.60;70.90;;;;;;6245532;23;20589;-48
2023/09/13 15:45:10;;;;;;;2.57;1.30;;;18.50;80.20;;;;;;6247059;22;20168;-48
2023/09/13 15:47:37;;;;;;;3.00;1.80;;;18.40;78.30;;;;;;6245399;23;20160;-48
2023/09/13 15:50:03;;;;;;;2.37;1.40;;;18.30;78.40;;;;;;6246336;23;20508;-47
2023/09/13 15:52:29;;;;;;;2.70;1.07;;;18.30;88.80;;;;;;6245178;23;20163;-48
2023/09/13 15:54:55;;;;;;;2.07;1.20;;;18.30;87.10;;;;;;6246760;22;20171;-47
2023/09/13 15:57:22;;;;;;;2.80;1.30;;;18.20;77.20;;;;;;6245507;23;20164;-48
2023/09/13 15:59:51;;;;;;;2.97;1.20;;;18.20;84.80;;;;;;6247856;23;20155;-48
2023/09/13 16:02:17;;;;;;;1.40;1.30;;;18.10;84.20;;;;;;6245364;23;20179;-46
2023/09/13 16:04:42;;;;;;;4.77;1.50;;;18.10;83.70;;;;;;6244709;23;20625;-48
2023/09/13 16:07:08;;;;;;;3.00;1.20;;;18.10;86.00;;;;;;6244945;23;20160;-47
2023/09/13 16:09:34;;;;;;;2.60;1.10;;;18.10;91.80;;;;;;6244910;23;20167;-46
2023/09/13 16:12:00;;;;;;;2.00;1.33;;;18.10;95.10;;;;;;6246808;22;20159;-46
2023/09/13 16:14:34;;;;;;;2.70;1.40;;;18.10;95.70;;;;;;6244829;23;20263;-46
2023/09/13 16:17:03;;;;;;;2.53;1.17;;;18.10;91.90;;;;;;6245833;23;20156;-47
2023/09/13 16:19:30;;;;;;;3.43;1.53;;;18.10;94.00;;;;;;6247017;22;20517;-46
2023/09/13 16:21:56;;;;;;;3.23;1.57;;;18.10;94.80;;;;;;6244869;23;20225;-47
2023/09/13 16:24:21;;;;;;;2.20;1.50;;;18.10;94.50;;;;;;6246644;22;20179;-47
2023/09/13 16:26:47;;;;;;;3.53;1.60;;;18.10;94.60;;;;;;6244740;23;20520;-48
2023/09/13 16:29:13;;;;;;;1.70;1.13;;;18.10;94.60;;;;;;6246600;23;20479;-48
2023/09/13 16:31:38;;;;;;;2.40;1.50;;;18.10;93.90;;;;;;6246409;23;20152;-48
2023/09/13 16:34:04;;;;;;;1.90;1.17;;;18.10;93.90;;;;;;6246427;22;20154;-46
2023/09/13 16:36:30;;;;;;;3.07;1.43;;;18.10;93.20;;;;;;6246388;22;20186;-46
2023/09/13 16:38:56;;;;;;;3.20;1.60;;;18.10;92.80;;;;;;6246308;22;20152;-46
2023/09/13 16:41:22;;;;;;;3.00;1.50;;;18.10;90.60;;;;;;6245115;23;20163;-43
2023/09/13 16:43:48;;;;;;;3.37;1.40;;;18.10;90.20;;;;;;6246516;22;20181;-43
2023/09/13 16:46:14;;;;;;;2.63;1.70;;;18.10;91.00;;;;;;6246206;22;20172;-45
2023/09/13 16:48:40;;;;;;;3.37;1.60;;;18.10;91.40;;;;;;6246609;23;20159;-43
2023/09/13 16:51:05;;;;;;;2.17;1.70;;;18.10;92.50;;;;;;6246312;23;20617;-48
2023/09/13 16:53:34;;;;;;;1.60;1.23;;;18.10;94.20;;;;;;6246339;23;20231;-48
2023/09/13 16:56:02;;;;;;;3.73;1.43;;;18.10;91.70;;;;;;6244970;23;20175;-48
2023/09/13 16:58:28;;;;;;;4.60;1.50;;;18.00;90.10;;;;;;6244887;23;20522;-49
2023/09/13 17:00:56;;;;;;;4.53;1.27;;;18.00;90.30;;;;;;6246628;22;20206;-47
2023/09/13 17:03:29;;;;;;;3.73;1.57;;;17.90;89.00;;;;;;6244404;23;20254;-48
2023/09/13 17:05:58;;;;;;;2.27;1.40;;;17.90;90.00;;;;;;6245537;23;20186;-49
2023/09/13 17:08:28;;;;;;;4.00;1.60;;;17.80;91.00;;;;;;6246350;22;20164;-48
2023/09/13 17:10:53;;;;;;;2.47;1.47;;;17.80;93.30;;;;;;6246354;23;20155;-48
2023/09/13 17:13:20;;;;;;;3.57;1.80;;;17.70;93.40;;;;;;6246220;22;20660;-48
2023/09/13 17:15:46;;;;;;;3.97;1.43;;;17.70;92.70;;;;;;6244486;23;20233;-50
2023/09/13 17:18:11;;;;;;;3.03;1.40;;;17.70;93.50;;;;;;6246645;23;20199;-50
2023/09/13 17:20:37;;;;;;;3.73;1.40;;;17.70;94.40;;;;;;6248368;22;20155;-48
2023/09/13 17:23:03;;;;;;;2.47;1.40;;;17.60;96.10;;;;;;6248257;23;20179;-50
2023/09/13 17:25:29;;;;;;;4.33;1.57;;;17.70;96.00;;;;;;6248456;22;20171;-49
2023/09/13 17:28:03;;;;;;;2.50;1.37;;;17.70;95.90;;;;;;6249441;23;20223;-43
2023/09/13 17:30:29;;;;;;;2.83;1.50;;;17.70;96.10;;;;;;6248392;23;20473;-43
2023/09/13 17:32:56;;;;;;;4.50;1.70;;;17.70;96.10;;;;;;6251134;22;20586;-48
2023/09/13 17:35:22;;;;;;;3.93;1.23;;;17.60;96.40;;;;;;6248706;23;20250;-44
2023/09/13 17:37:48;;;;;;;3.80;1.40;;;17.70;97.10;;;;;;6250184;22;20156;-47
2023/09/13 17:40:17;;;;;;;3.93;1.40;;;17.60;95.50;;;;;;6248518;23;20535;-43
2023/09/13 17:42:43;;;;;;;3.10;1.60;;;17.60;95.20;;;;;;6247492;23;20597;-48
2023/09/13 17:45:09;;;;;;;2.17;1.70;;;17.60;95.80;;;;;;6247653;23;20180;-43
2023/09/13 17:47:35;;;;;;;2.27;1.10;;;17.60;95.00;;;;;;6249780;22;20178;-49
2023/09/13 17:50:01;;;;;;;4.10;1.33;;;17.60;94.50;;;;;;6249771;22;20156;-43
2023/09/13 17:52:27;;;;;;;4.23;1.03;;;17.60;93.50;;;;;;6249332;22;20159;-48
2023/09/13 17:54:53;;;;;;;4.10;1.60;;;17.60;93.30;;;;;;6248096;23;20625;-41
2023/09/13 17:57:18;;;;;;;5.73;1.77;;;17.60;93.50;;;;;;6249935;22;20165;-46
2023/09/13 17:59:45;;;;;;;3.97;1.80;;;17.50;94.00;;;;;;6248990;23;20163;-48
2023/09/13 18:03:02;;;;;;;2.17;1.50;;;17.50;95.30;;;;;;6248754;23;20229;-45
2023/09/13 18:05:29;;;;;;;2.80;1.33;;;17.50;95.20;;;;;;6156923;23;20217;-48
2023/09/13 18:08:06;;;;;;;3.40;1.40;;;17.40;95.60;;;;;;6230437;23;20159;-43
2023/09/13 18:13:55;;;;;;;3.93;1.47;;;17.40;96.60;;;;;;6249368;23;20601;-44
2023/09/13 18:16:22;;;;;;;5.07;1.60;;;17.30;97.30;;;;;;6221788;23;20258;-43
2023/09/13 18:18:50;;;;;;;4.83;1.60;;;17.30;98.10;;;;;;6247305;23;20155;-50
2023/09/13 18:21:37;;;;;;;2.67;1.50;;;17.20;99.50;;;;;;6249210;22;20155;-47